createdAt,value
2018-11-23T00:00:35.190Z,15.67
2018-11-23T00:03:23.788Z,16.63
2018-11-23T00:05:52.819Z,17.70
2018-11-23T00:08:41.271Z,16.67
2018-11-23T00:11:29.809Z,16.63
2018-11-23T00:14:18.258Z,17.13
2018-11-23T00:17:06.590Z,15.80
2018-11-23T00:19:54.950Z,16.43
2018-11-23T00:22:43.527Z,16.53
2018-11-23T00:25:31.902Z,17.43
2018-11-23T00:28:20.273Z,16.97
2018-11-23T00:31:08.662Z,16.50
2018-11-23T00:33:57.009Z,16.07
2018-11-23T00:36:45.439Z,17.90
2018-11-23T00:39:33.773Z,16.13
2018-11-23T00:45:48.143Z,17.53
2018-11-23T00:48:29.298Z,17.47
2018-11-23T00:51:10.693Z,18.07
2018-11-23T00:53:52.290Z,16.97
2018-11-23T00:56:33.687Z,17.13
2018-11-23T00:59:15.420Z,17.30
2018-11-23T01:02:03.465Z,16.47
2018-11-23T01:04:51.880Z,17.63
2018-11-23T01:07:21.099Z,17.83
2018-11-23T01:10:10.744Z,17.17
2018-11-23T01:12:59.318Z,15.87
2018-11-23T01:15:47.700Z,17.13
2018-11-23T01:18:36.055Z,17.43
2018-11-23T01:21:24.455Z,18.20
2018-11-23T01:24:12.781Z,18.50
2018-11-23T01:27:01.193Z,17.93
2018-11-23T01:29:49.519Z,17.00
2018-11-23T01:32:37.883Z,17.53
2018-11-23T01:35:26.383Z,18.53
2018-11-23T01:38:14.802Z,17.77
2018-11-23T01:41:03.221Z,17.97
2018-11-23T01:43:51.637Z,17.87
2018-11-23T01:46:40.101Z,18.23
2018-11-23T01:49:28.441Z,18.23
2018-11-23T01:52:16.794Z,17.97
2018-11-23T01:55:05.890Z,17.90
2018-11-23T01:57:54.249Z,19.00
2018-11-23T02:00:42.667Z,18.50
2018-11-23T02:03:31.113Z,16.63
2018-11-23T02:06:00.147Z,17.33
2018-11-23T02:08:48.604Z,18.40
2018-11-23T02:11:38.019Z,17.33
2018-11-23T02:14:25.326Z,17.37
2018-11-23T02:17:13.665Z,17.23
2018-11-23T02:20:01.997Z,17.37
2018-11-23T02:22:50.354Z,17.07
2018-11-23T02:25:38.725Z,17.03
2018-11-23T02:28:27.081Z,16.43
2018-11-23T02:31:15.363Z,17.27
2018-11-23T02:34:03.780Z,16.10
2018-11-23T02:36:52.073Z,16.97
2018-11-23T02:39:40.787Z,17.00
2018-11-23T02:42:29.126Z,17.30
2018-11-23T02:45:36.574Z,17.00
2018-11-23T02:48:24.933Z,17.63
2018-11-23T02:51:13.348Z,17.53
2018-11-23T02:54:01.699Z,18.07
2018-11-23T02:56:50.142Z,18.97
2018-11-23T02:59:38.669Z,16.97
2018-11-23T03:02:27.112Z,16.63
2018-11-23T03:05:16.742Z,17.03
2018-11-23T03:08:05.411Z,17.43
2018-11-23T03:10:53.665Z,17.93
2018-11-23T03:13:22.698Z,17.07
2018-11-23T03:15:51.660Z,16.97
2018-11-23T03:18:40.064Z,17.07
2018-11-23T03:21:28.375Z,16.97
2018-11-23T03:24:16.870Z,17.73
2018-11-23T03:27:05.252Z,16.73
2018-11-23T03:29:53.821Z,17.50
2018-11-23T03:32:42.268Z,17.87
2018-11-23T03:35:30.613Z,18.10
2018-11-23T03:38:18.937Z,17.63
2018-11-23T03:41:07.260Z,17.73
2018-11-23T03:43:48.763Z,18.43
2018-11-23T03:46:30.536Z,18.03
2018-11-23T03:49:11.785Z,17.53
2018-11-23T03:51:53.361Z,18.13
2018-11-23T03:54:22.400Z,18.90
2018-11-23T03:57:10.800Z,19.60
2018-11-23T03:59:59.144Z,19.23
2018-11-23T04:02:47.659Z,19.97
2018-11-23T04:05:35.989Z,18.63
2018-11-23T04:08:24.366Z,18.77
2018-11-23T04:11:12.735Z,18.10
2018-11-23T04:14:01.077Z,18.43
2018-11-23T04:16:30.023Z,17.90
2018-11-23T04:19:18.366Z,19.60
2018-11-23T04:21:47.460Z,19.33
2018-11-23T04:24:36.037Z,19.40
2018-11-23T04:27:24.370Z,19.53
2018-11-23T04:33:28.044Z,18.87
2018-11-23T04:36:16.365Z,18.33
2018-11-23T04:39:06.110Z,19.03
2018-11-23T04:41:54.448Z,18.20
2018-11-23T04:44:42.757Z,18.30
2018-11-23T04:47:11.838Z,18.23
2018-11-23T04:49:40.827Z,19.33
2018-11-23T04:52:09.793Z,17.80
2018-11-23T04:54:58.211Z,17.77
2018-11-23T04:57:27.197Z,20.87
2018-11-23T05:00:15.645Z,20.47
2018-11-23T05:02:45.312Z,17.83
2018-11-23T05:05:33.671Z,19.20
2018-11-23T05:11:10.857Z,18.40
2018-11-23T05:13:59.313Z,18.90
2018-11-23T05:16:47.647Z,18.37
2018-11-23T05:19:35.960Z,17.97
2018-11-23T05:22:24.332Z,18.23
2018-11-23T05:25:13.381Z,18.10
2018-11-23T05:28:01.764Z,17.90
2018-11-23T05:30:50.052Z,18.53
2018-11-23T05:33:38.343Z,17.87
2018-11-23T05:36:26.672Z,18.73
2018-11-23T05:39:15.097Z,17.60
2018-11-23T05:41:44.347Z,18.40
2018-11-23T05:44:32.698Z,18.93
2018-11-23T05:47:21.174Z,17.97
2018-11-23T05:50:11.103Z,18.67
2018-11-23T05:52:59.467Z,18.50
2018-11-23T05:55:47.808Z,18.93
2018-11-23T05:58:36.157Z,19.40
2018-11-23T06:01:24.526Z,19.87
2018-11-23T06:04:12.921Z,18.70
2018-11-23T06:07:01.314Z,19.37
2018-11-23T06:09:49.901Z,19.53
2018-11-23T06:12:38.283Z,19.40
2018-11-23T06:15:26.592Z,18.10
2018-11-23T06:18:15.048Z,18.63
2018-11-23T06:21:03.301Z,19.07
2018-11-23T06:23:51.694Z,18.63
2018-11-23T06:26:40.011Z,18.60
2018-11-23T06:29:28.430Z,19.03
2018-11-23T06:32:36.068Z,19.70
2018-11-23T06:35:24.492Z,18.73
2018-11-23T06:38:12.774Z,18.90
2018-11-23T06:41:01.143Z,18.80
2018-11-23T06:43:42.742Z,19.47
2018-11-23T06:46:24.416Z,18.17
2018-11-23T06:49:05.510Z,18.70
2018-11-23T06:51:47.111Z,19.40
2018-11-23T06:54:28.822Z,19.50
2018-11-23T06:57:10.456Z,19.57
2018-11-23T06:59:52.053Z,18.63
2018-11-23T07:02:32.835Z,20.17
2018-11-23T07:05:14.420Z,19.53
2018-11-23T07:07:55.644Z,18.63
2018-11-23T07:10:37.480Z,20.10
2018-11-23T07:13:19.054Z,18.23
2018-11-23T07:16:00.110Z,19.83
2018-11-23T07:18:41.296Z,20.20
2018-11-23T07:21:22.073Z,19.17
2018-11-23T07:24:03.921Z,20.77
2018-11-23T07:26:45.411Z,19.97
2018-11-23T07:29:26.808Z,20.83
2018-11-23T07:32:08.604Z,20.70
2018-11-23T07:34:49.886Z,21.30
2018-11-23T07:37:31.168Z,21.13
2018-11-23T07:40:12.704Z,20.97
2018-11-23T07:42:53.996Z,22.33
2018-11-23T07:45:35.437Z,20.90
2018-11-23T07:48:04.515Z,21.93
2018-11-23T07:50:52.847Z,22.00
2018-11-23T07:53:41.181Z,21.93
2018-11-23T07:56:29.475Z,21.00
2018-11-23T07:59:17.854Z,21.33
2018-11-23T08:02:06.749Z,20.43
2018-11-23T08:04:35.937Z,21.47
2018-11-23T08:07:24.241Z,20.80
2018-11-23T08:10:31.100Z,21.80
2018-11-23T08:13:19.417Z,21.87
2018-11-23T08:16:07.856Z,21.30
2018-11-23T08:21:25.968Z,23.37
2018-11-23T08:24:14.372Z,22.27
2018-11-23T08:26:43.409Z,22.33
2018-11-23T08:29:31.743Z,21.93
2018-11-23T08:32:20.165Z,22.90
2018-11-23T08:35:08.482Z,22.20
2018-11-23T08:37:56.860Z,22.63
2018-11-23T08:40:27.040Z,21.93
2018-11-23T08:43:15.458Z,23.87
2018-11-23T08:45:44.388Z,23.93
2018-11-23T08:48:13.401Z,23.40
2018-11-23T08:51:01.735Z,23.60
2018-11-23T08:53:50.088Z,23.73
2018-11-23T08:56:38.424Z,23.93
2018-11-23T08:59:26.762Z,25.20
2018-11-23T09:01:55.770Z,25.43
2018-11-23T09:04:25.043Z,26.07
2018-11-23T09:07:13.880Z,25.17
2018-11-23T09:10:02.258Z,25.80
2018-11-23T09:12:51.435Z,24.33
2018-11-23T09:15:39.824Z,24.53
2018-11-23T09:18:28.177Z,25.40
2018-11-23T09:21:16.489Z,24.90
2018-11-23T09:24:04.920Z,25.40
2018-11-23T09:26:53.577Z,24.40
2018-11-23T09:29:41.889Z,23.53
2018-11-23T09:35:19.475Z,23.93
2018-11-23T09:37:48.828Z,24.07
2018-11-23T09:40:37.145Z,23.70
2018-11-23T09:43:06.324Z,22.30
2018-11-23T09:45:35.597Z,22.67
2018-11-23T09:48:23.895Z,20.77
2018-11-23T09:51:12.297Z,22.10
2018-11-23T09:54:00.597Z,22.30
2018-11-23T09:56:49.084Z,22.67
2018-11-23T09:59:18.009Z,23.70
2018-11-23T10:02:06.376Z,23.27
2018-11-23T10:04:54.713Z,22.43
2018-11-23T10:07:44.234Z,21.23
2018-11-23T10:10:32.589Z,21.63
2018-11-23T10:13:20.916Z,23.13
2018-11-23T10:16:09.556Z,24.57
2018-11-23T10:18:57.876Z,25.97
2018-11-23T10:21:46.228Z,26.43
2018-11-23T10:24:36.208Z,26.50
2018-11-23T10:27:22.948Z,27.63
2018-11-23T10:30:12.547Z,26.97
2018-11-23T10:33:02.251Z,25.93
2018-11-23T10:35:31.739Z,26.07
2018-11-23T10:38:20.063Z,26.70
2018-11-23T10:40:48.980Z,28.83
2018-11-23T10:43:37.331Z,27.30
2018-11-23T10:46:25.676Z,27.03
2018-11-23T10:49:14.061Z,26.70
2018-11-23T10:52:02.324Z,27.00
2018-11-23T10:54:50.632Z,26.90
2018-11-23T10:57:19.604Z,26.70
2018-11-23T11:00:30.765Z,27.17
2018-11-23T11:03:38.234Z,27.13
2018-11-23T11:09:51.315Z,26.30
2018-11-23T11:12:39.638Z,27.20
2018-11-23T11:15:28.076Z,27.27
2018-11-23T11:17:56.967Z,26.17
2018-11-23T11:20:45.293Z,26.63
2018-11-23T11:23:51.498Z,25.97
2018-11-23T11:26:39.875Z,25.73
2018-11-23T11:29:28.212Z,26.17
2018-11-23T11:32:16.554Z,24.63
2018-11-23T11:35:05.553Z,26.17
2018-11-23T11:37:34.518Z,26.03
2018-11-23T11:40:22.866Z,25.87
2018-11-23T11:42:51.843Z,26.37
2018-11-23T11:45:40.458Z,26.57
2018-11-23T11:48:28.790Z,25.17
2018-11-23T11:50:57.783Z,27.60
2018-11-23T11:53:46.110Z,26.07
2018-11-23T11:56:34.465Z,26.43
2018-11-23T11:59:22.761Z,26.17
2018-11-23T12:02:11.153Z,26.03
2018-11-23T12:04:59.502Z,25.63
2018-11-23T12:07:47.921Z,25.43
2018-11-23T12:10:36.235Z,25.43
2018-11-23T12:13:24.575Z,26.90
2018-11-23T12:16:12.923Z,27.00
2018-11-23T12:19:01.336Z,25.57
2018-11-23T12:21:49.651Z,26.03
2018-11-23T12:24:37.982Z,25.33
2018-11-23T12:27:29.352Z,26.10
2018-11-23T12:30:16.055Z,25.30
2018-11-23T12:33:04.429Z,24.67
2018-11-23T12:35:52.793Z,25.93
2018-11-23T12:38:43.161Z,24.37
2018-11-23T12:41:29.474Z,25.80
2018-11-23T12:44:11.008Z,24.77
2018-11-23T12:46:52.394Z,25.27
2018-11-23T12:49:34.056Z,24.77
2018-11-23T12:52:15.894Z,23.53
2018-11-23T12:54:56.922Z,24.53
2018-11-23T12:57:37.898Z,26.20
2018-11-23T13:00:28.920Z,25.43
2018-11-23T13:03:10.385Z,27.97
2018-11-23T13:05:52.089Z,24.37
2018-11-23T13:11:37.335Z,25.80
2018-11-23T13:14:25.695Z,24.67
2018-11-23T13:17:14.055Z,25.70
2018-11-23T13:19:43.111Z,25.90
2018-11-23T13:22:31.510Z,25.30
2018-11-23T13:25:38.984Z,24.87
2018-11-23T13:28:07.861Z,26.27
2018-11-23T13:30:56.175Z,25.50
2018-11-23T13:33:44.548Z,26.40
2018-11-23T13:36:32.898Z,25.80
2018-11-23T13:39:21.226Z,24.87
2018-11-23T13:42:09.590Z,26.13
2018-11-23T13:44:57.947Z,24.40
2018-11-23T13:47:46.308Z,25.00
2018-11-23T13:50:34.625Z,26.93
2018-11-23T13:53:22.937Z,26.03
2018-11-23T13:56:11.247Z,25.80
2018-11-23T13:58:59.619Z,25.47
2018-11-23T14:01:47.967Z,26.10
2018-11-23T14:04:36.313Z,27.00
2018-11-23T14:07:05.434Z,26.17
2018-11-23T14:09:53.794Z,26.23
2018-11-23T14:12:42.586Z,27.43
2018-11-23T14:15:31.499Z,27.33
2018-11-23T14:18:19.821Z,25.83
2018-11-23T14:21:08.154Z,25.93
2018-11-23T14:23:56.540Z,28.23
2018-11-23T14:26:44.881Z,27.30
2018-11-23T14:29:33.251Z,25.77
2018-11-23T14:32:02.165Z,25.50
2018-11-23T14:34:50.532Z,27.70
2018-11-23T14:37:39.363Z,27.60
2018-11-23T14:40:09.178Z,26.47
2018-11-23T14:42:57.861Z,27.67
2018-11-23T14:45:46.216Z,27.27
2018-11-23T14:48:34.542Z,26.80
2018-11-23T14:51:23.250Z,27.23
2018-11-23T14:54:11.580Z,26.03
2018-11-23T14:56:59.879Z,27.00
2018-11-23T14:59:48.228Z,27.20
2018-11-23T15:02:17.201Z,26.00
2018-11-23T15:05:05.924Z,26.33
2018-11-23T15:07:54.235Z,25.63
2018-11-23T15:10:42.545Z,26.03
2018-11-23T15:13:30.890Z,26.47
2018-11-23T15:16:19.233Z,29.23
2018-11-23T15:19:07.717Z,28.37
2018-11-23T15:21:56.052Z,25.77
2018-11-23T15:24:25.051Z,28.07
2018-11-23T15:26:54.306Z,26.73
2018-11-23T15:32:56.269Z,25.90
2018-11-23T15:35:44.739Z,25.60
2018-11-23T15:38:15.358Z,26.03
2018-11-23T15:40:44.339Z,25.77
2018-11-23T15:43:14.451Z,25.30
2018-11-23T15:46:02.847Z,26.00
2018-11-23T15:48:51.167Z,26.37
2018-11-23T15:51:20.134Z,26.50
2018-11-23T15:54:08.521Z,26.80
2018-11-23T15:56:45.359Z,26.53
2018-11-23T15:59:34.302Z,26.53
2018-11-23T16:02:03.639Z,24.57
2018-11-23T16:04:51.977Z,25.50
2018-11-23T16:07:21.305Z,24.17
2018-11-23T16:09:50.260Z,25.90
2018-11-23T16:12:38.704Z,25.57
2018-11-23T16:15:08.529Z,24.60
2018-11-23T16:17:57.413Z,25.37
2018-11-23T16:20:46.566Z,24.67
2018-11-23T16:23:34.992Z,24.47
2018-11-23T16:26:23.255Z,25.03
2018-11-23T16:29:11.627Z,24.83
2018-11-23T16:32:00.067Z,24.57
2018-11-23T16:38:03.646Z,25.50
2018-11-23T16:41:11.061Z,23.83
2018-11-23T16:43:40.026Z,23.90
2018-11-23T16:46:09.067Z,23.23
2018-11-23T16:52:11.116Z,22.73
2018-11-23T16:54:40.036Z,25.37
2018-11-23T16:57:28.382Z,23.87
2018-11-23T17:00:36.222Z,22.43
2018-11-23T17:03:07.447Z,23.13
2018-11-23T17:05:55.504Z,22.80
2018-11-23T17:08:43.830Z,25.17
2018-11-23T17:11:12.877Z,23.97
2018-11-23T17:13:41.731Z,22.93
2018-11-23T17:16:30.117Z,23.13
2018-11-23T17:19:18.408Z,23.00
2018-11-23T17:22:07.058Z,23.37
2018-11-23T17:24:55.556Z,22.50
2018-11-23T17:27:44.201Z,23.23
2018-11-23T17:30:33.409Z,22.13
2018-11-23T17:33:21.695Z,22.70
2018-11-23T17:36:10.201Z,23.40
2018-11-23T17:38:58.568Z,22.80
2018-11-23T17:41:27.515Z,23.10
2018-11-23T17:44:15.929Z,22.60
2018-11-23T17:47:04.202Z,23.43
2018-11-23T17:49:33.331Z,21.70
2018-11-23T17:52:02.419Z,22.77
2018-11-23T17:54:50.957Z,22.03
2018-11-23T17:57:39.720Z,22.47
2018-11-23T18:00:38.959Z,22.93
2018-11-23T18:03:20.496Z,22.83
2018-11-23T18:06:08.783Z,22.90
2018-11-23T18:08:57.140Z,22.47
2018-11-23T18:11:26.114Z,22.40
2018-11-23T18:14:14.473Z,23.60
2018-11-23T18:17:02.844Z,24.43
2018-11-23T18:19:51.511Z,23.20
2018-11-23T18:22:40.177Z,23.30
2018-11-23T18:25:47.596Z,23.67
2018-11-23T18:28:35.894Z,23.43
2018-11-23T18:31:05.140Z,23.93
2018-11-23T18:33:34.019Z,24.83
2018-11-23T18:36:22.451Z,24.30
2018-11-23T18:39:10.788Z,24.40
2018-11-23T18:41:59.102Z,24.83
2018-11-23T18:44:28.076Z,23.70
2018-11-23T18:47:16.434Z,23.00
2018-11-23T18:50:05.259Z,24.43
2018-11-23T18:52:53.604Z,25.40
2018-11-23T18:55:41.898Z,25.50
2018-11-23T18:58:30.386Z,24.17
2018-11-23T19:00:59.353Z,25.17
2018-11-23T19:03:28.436Z,25.00
2018-11-23T19:06:16.827Z,24.83
2018-11-23T19:09:07.604Z,24.90
2018-11-23T19:11:55.956Z,26.97
2018-11-23T19:14:44.286Z,23.10
2018-11-23T19:17:32.632Z,23.87
2018-11-23T19:20:01.524Z,24.70
2018-11-23T19:22:50.324Z,24.40
2018-11-23T19:25:38.734Z,25.10
2018-11-23T19:28:27.262Z,24.30
2018-11-23T19:31:15.558Z,24.50
2018-11-23T19:34:03.878Z,26.20
2018-11-23T19:36:52.281Z,26.33
2018-11-23T19:39:40.697Z,25.80
2018-11-23T19:42:28.922Z,25.87
2018-11-23T19:45:17.340Z,25.40
2018-11-23T19:48:05.880Z,25.73
2018-11-23T19:50:54.223Z,26.20
2018-11-23T19:53:23.241Z,25.57
2018-11-23T19:55:52.588Z,24.10
2018-11-23T19:58:21.641Z,26.13
2018-11-23T20:01:10.005Z,26.67
2018-11-23T20:03:58.424Z,25.97
2018-11-23T20:06:47.365Z,25.80
2018-11-23T20:09:39.826Z,27.13
2018-11-23T20:12:24.000Z,25.57
2018-11-23T20:15:13.027Z,25.50
2018-11-23T20:18:01.517Z,26.83
2018-11-23T20:20:49.896Z,24.20
2018-11-23T20:23:38.296Z,25.20
2018-11-23T20:26:26.831Z,24.70
2018-11-23T20:29:15.209Z,26.37
2018-11-23T20:32:03.579Z,24.67
2018-11-23T20:34:51.894Z,23.40
2018-11-23T20:37:40.262Z,25.23
2018-11-23T20:40:28.633Z,24.67
2018-11-23T20:43:17.161Z,25.00
2018-11-23T20:46:05.403Z,24.60
2018-11-23T20:48:34.398Z,24.53
2018-11-23T20:51:03.354Z,25.10
2018-11-23T20:53:51.695Z,23.53
2018-11-23T20:56:39.994Z,23.33
2018-11-23T20:59:28.314Z,23.30
2018-11-23T21:02:16.651Z,24.27
2018-11-23T21:04:45.642Z,22.73
2018-11-23T21:07:33.963Z,23.93
2018-11-23T21:10:22.881Z,23.10
2018-11-23T21:13:11.205Z,24.10
2018-11-23T21:15:59.534Z,23.67
2018-11-23T21:18:28.537Z,23.30
2018-11-23T21:21:16.848Z,23.53
2018-11-23T21:24:05.464Z,24.40
2018-11-23T21:26:53.840Z,24.70
2018-11-23T21:29:42.187Z,25.00
2018-11-23T21:32:11.331Z,24.90
2018-11-23T21:34:59.674Z,23.13
2018-11-23T21:37:48.009Z,24.47
2018-11-23T21:40:36.397Z,25.47
2018-11-23T21:47:21.761Z,24.57
2018-11-23T21:50:03.435Z,24.73
2018-11-23T21:52:44.637Z,24.27
2018-11-23T21:55:26.250Z,25.17
2018-11-23T21:57:56.398Z,25.30
2018-11-23T22:00:45.135Z,26.50
2018-11-23T22:03:14.917Z,25.27
2018-11-23T22:06:03.564Z,24.70
2018-11-23T22:11:40.764Z,26.10
2018-11-23T22:14:29.729Z,23.40
2018-11-23T22:16:58.661Z,24.00
2018-11-23T22:19:47.328Z,24.90
2018-11-23T22:22:35.476Z,26.17
2018-11-23T22:25:23.809Z,25.13
2018-11-23T22:28:12.173Z,26.10
2018-11-23T22:30:41.111Z,24.27
2018-11-23T22:33:29.507Z,23.80
2018-11-23T22:36:17.778Z,23.47
2018-11-23T22:39:08.173Z,25.07
2018-11-23T22:41:56.473Z,24.40
2018-11-23T22:47:52.197Z,24.27
2018-11-23T22:50:40.649Z,23.93
2018-11-23T22:53:48.359Z,24.17
2018-11-23T22:56:17.435Z,23.90
2018-11-23T22:59:05.895Z,23.20
2018-11-23T23:01:35.134Z,23.97
2018-11-23T23:04:23.480Z,25.33
2018-11-23T23:07:12.089Z,24.40
2018-11-23T23:10:00.507Z,24.00
2018-11-23T23:12:49.275Z,24.00
2018-11-23T23:15:37.789Z,24.33
2018-11-23T23:18:06.838Z,25.23
2018-11-23T23:20:36.873Z,26.00
2018-11-23T23:23:25.377Z,23.73
2018-11-23T23:26:13.709Z,23.17
2018-11-23T23:29:02.336Z,24.00
2018-11-23T23:31:50.629Z,23.20
2018-11-23T23:34:39.335Z,23.93
2018-11-23T23:37:08.666Z,25.43
2018-11-23T23:39:57.020Z,23.63
2018-11-23T23:42:45.489Z,25.03
2018-11-23T23:45:34.199Z,24.27
2018-11-23T23:48:03.338Z,22.73
2018-11-23T23:50:51.888Z,24.33
2018-11-23T23:53:40.200Z,25.13
2018-11-23T23:56:28.564Z,24.67
2018-11-23T23:59:16.868Z,24.83
